Topgun 80 — WDG6294 — position and weather

sailwx.info

Track history (hours):
 
Tides and Currents Weather Stations Pressure Air Temp Water Temp Dewpoint Dewpoint Depression Visibility Wind Speed Wind Dir Waves Ship Positions

Topgun 80

Owner: TopGun 80 Inc., San Diego, CA. More information available from US FCC via Universal Licensing System and Coast Guard Vessel Documentation Center.

Last reported at 2017-Oct-19 07:00 UTC. Time now 2017-Nov-24 11:08 UTC.
Position N 32°39' W 117°21'.
Warning: this ship's position is 36 days out of date.

Type: Passenger vessel. MMSI: 368437000.

Date/timePositionNaut miles runAvg speedWind from/ knotsBaromVisibWave heightAir tempDewpointWater temp
2017-Oct-19 07:00N 32°39' W 117°21'510.6
2017-Oct-19 06:30N 32°40' W 117°27'610.4
2017-Oct-19 05:58N 32°42' W 117°34'510.3
2017-Oct-19 05:30N 32°43' W 117°39'5 9.9
2017-Oct-19 05:00N 32°44' W 117°45'10 9.8
2017-Oct-19 03:57N 32°47' W 117°57'410.0
2017-Oct-19 03:30N 32°48' W 118°02'710.1
2017-Oct-19 02:49N 32°49' W 118°10'310.4
2017-Oct-19 02:30N 32°50' W 118°14'510.5
2017-Oct-19 02:01N 32°52' W 118°20'5 9.3
2017-Oct-19 01:30N 32°53' W 118°25'0 0.0
2017-Oct-19 01:00N 32°53' W 118°25'0 0.0
2017-Oct-19 00:29N 32°53' W 118°25'0 0.0
2017-Oct-19 00:00N 32°53' W 118°25'4 8.4
2017-Oct-18 23:30N 32°50' W 118°21'1 2.4
2017-Oct-18 23:00N 32°49' W 118°22'2 0.1
2017-Oct-18 09:58N 32°49' W 118°24'0 0.0
2017-Oct-18 09:26N 32°49' W 118°24'0 0.0
2017-Oct-18 08:55N 32°49' W 118°24'0 0.0
2017-Oct-18 08:26N 32°49' W 118°24'25 4.9
2017-Oct-18 03:28N 32°28' W 118°09'4 8.9
2017-Oct-18 03:00N 32°24' W 118°07'8 8.9
2017-Oct-18 02:07N 32°18' W 118°02'1 8.9
2017-Oct-18 02:00N 32°17' W 118°01'4 8.7
2017-Oct-18 01:30N 32°13' W 117°58'5 8.8
2017-Oct-18 00:58N 32°09' W 117°56'4 8.7
2017-Oct-18 00:29N 32°05' W 117°53'4 8.6
2017-Oct-18 00:00N 32°02' W 117°50'37 8.1
2017-Oct-17 19:23N 31°42' W 117°13'8 1.5
2017-Oct-17 14:09N 31°50' W 117°13'1 2.7
2017-Oct-17 13:41N 31°52' W 117°13'0 0.5
2017-Oct-17 13:29N 31°52' W 117°13'0 0.5
2017-Oct-17 13:00N 31°52' W 117°14'47 1.7
2017-Oct-16 08:48N 32°38' W 117°14'3 8.2
2017-Oct-16 08:27N 32°38' W 117°17'4 8.6
2017-Oct-16 07:59N 32°38' W 117°22'4 8.8
2017-Oct-16 07:30N 32°39' W 117°27'4 8.5
2017-Oct-16 07:00N 32°39' W 117°32'4 8.3
2017-Oct-16 06:30N 32°39' W 117°37'4 8.3
2017-Oct-16 06:00N 32°40' W 117°42'4 8.2
2017-Oct-16 05:30N 32°40' W 117°47'4 8.3
2017-Oct-16 05:01N 32°41' W 117°51'4 8.4
2017-Oct-16 04:30N 32°41' W 117°56'24 8.5
2017-Oct-16 01:44N 32°43' W 118°25'2 7.4
2017-Oct-16 01:30N 32°43' W 118°27'3 3.7
2017-Oct-16 00:42N 32°46' W 118°25'1 4.8
2017-Oct-16 00:28N 32°44' W 118°26'4 6.8
2017-Oct-15 23:54N 32°43' W 118°30'7 5.5
2017-Oct-15 22:42N 32°41' W 118°37'4 9.9
2017-Oct-15 22:16N 32°40' W 118°42'310.2
2017-Oct-15 21:59N 32°40' W 118°45'5 8.2
2017-Oct-15 21:25N 32°40' W 118°51'14 1.6
2017-Oct-15 12:27N 32°42' W 119°08'0 0.0
2017-Oct-15 12:00N 32°42' W 119°08'0 0.0
2017-Oct-15 11:30N 32°42' W 119°08'0 0.0
2017-Oct-15 10:52N 32°42' W 119°08'0 0.0
2017-Oct-15 10:27N 32°42' W 119°08'0 0.0
2017-Oct-15 10:00N 32°42' W 119°08'0 0.0
2017-Oct-15 09:29N 32°42' W 119°08'0 0.0
2017-Oct-15 06:40N 32°42' W 119°08'0 0.0
2017-Oct-15 06:30N 32°42' W 119°08'0 0.0
2017-Oct-15 05:24N 32°42' W 119°08'0 0.0
2017-Oct-15 04:59N 32°42' W 119°08'0 0.0
2017-Oct-15 04:30N 32°42' W 119°08'0 0.0
2017-Oct-15 04:00N 32°42' W 119°08'0 0.0
2017-Oct-15 03:30N 32°42' W 119°08'0 0.0
2017-Oct-15 03:00N 32°42' W 119°08'0 0.0
2017-Oct-15 02:30N 32°42' W 119°08'0 0.0
2017-Oct-14 23:14N 32°42' W 119°08'0 0.0
2017-Oct-14 22:22N 32°42' W 119°08'0 0.0
2017-Oct-14 21:56N 32°42' W 119°08'0 0.0
2017-Oct-14 21:24N 32°42' W 119°08'0 0.1
2017-Oct-14 20:56N 32°42' W 119°08'0 0.4
2017-Oct-14 20:28N 32°42' W 119°08'0 0.0
2017-Oct-14 20:00N 32°42' W 119°08'0 0.1
2017-Oct-14 19:29N 32°42' W 119°08'0 0.0
2017-Oct-14 18:58N 32°42' W 119°08'0 0.0
2017-Oct-14 18:30N 32°42' W 119°08'0 0.0
2017-Oct-14 17:59N 32°42' W 119°08'0 0.0
2017-Oct-14 17:30N 32°42' W 119°08'0 0.0
2017-Oct-14 16:58N 32°42' W 119°08'0 0.1
2017-Oct-14 16:30N 32°42' W 119°08'0 0.0
2017-Oct-14 15:19N 32°42' W 119°08'0 0.0
2017-Oct-14 14:59N 32°42' W 119°08'0 0.0
2017-Oct-14 14:30N 32°42' W 119°08'0 0.0
2017-Oct-14 13:59N 32°42' W 119°08'2 1.7
2017-Oct-14 12:48N 32°42' W 119°06'3 9.8
2017-Oct-14 12:30N 32°41' W 119°02'5 9.7
2017-Oct-14 12:00N 32°41' W 118°56'5 9.8
2017-Oct-14 11:30N 32°41' W 118°51'5 9.8
2017-Oct-14 11:00N 32°41' W 118°45'510.1
2017-Oct-14 10:30N 32°41' W 118°39'510.3
2017-Oct-14 10:00N 32°41' W 118°33'510.1
2017-Oct-14 09:30N 32°41' W 118°27'510.2
2017-Oct-14 09:00N 32°40' W 118°21'510.3
2017-Oct-14 08:29N 32°40' W 118°14'610.4
2017-Oct-14 07:55N 32°40' W 118°07'510.5
2017-Oct-14 07:24N 32°39' W 118°01'410.6
2017-Oct-14 07:00N 32°39' W 117°56'510.6
2017-Oct-14 06:30N 32°39' W 117°50'510.4
2017-Oct-14 06:00N 32°39' W 117°43'510.6
2017-Oct-14 05:30N 32°39' W 117°37'510.8
2017-Oct-14 05:00N 32°39' W 117°31'510.4
2017-Oct-14 04:30N 32°39' W 117°25'610.3
2017-Oct-14 03:54N 32°38' W 117°17'3 8.1
2017-Oct-14 03:29N 32°40' W 117°14'2 3.9
2017-Oct-14 03:00N 32°42' W 117°14'0 0.0
2017-Oct-14 02:31N 32°42' W 117°14'2 3.6
2017-Oct-14 02:00N 32°43' W 117°14'0 0.0
2017-Oct-14 01:30N 32°43' W 117°14'0 0.0
2017-Oct-14 01:00N 32°43' W 117°14'0 0.0
2017-Oct-14 00:30N 32°43' W 117°14'0 0.0
2017-Oct-13 12:04N 32°43' W 117°14'0 1.7
2017-Oct-13 12:00N 32°43' W 117°13'4 8.2
2017-Oct-13 11:30N 32°39' W 117°14'5 9.1
2017-Oct-13 11:00N 32°38' W 117°19'510.2
2017-Oct-13 10:30N 32°38' W 117°25'510.0
2017-Oct-13 10:00N 32°39' W 117°31'510.0
2017-Oct-13 09:30N 32°39' W 117°37'5 9.8
2017-Oct-13 09:00N 32°39' W 117°42'5 9.6
2017-Oct-13 08:30N 32°39' W 117°48'5 9.6
2017-Oct-13 08:00N 32°39' W 117°54'5 9.5
2017-Oct-13 07:30N 32°39' W 117°59'5 9.5
2017-Oct-13 07:00N 32°39' W 118°05'5 9.6
2017-Oct-13 06:30N 32°40' W 118°11'5 9.8
2017-Oct-13 06:00N 32°40' W 118°17'510.0
2017-Oct-13 05:30N 32°40' W 118°23'5 9.9
2017-Oct-13 04:59N 32°40' W 118°29'510.1
2017-Oct-13 04:30N 32°41' W 118°34'510.2
2017-Oct-13 04:00N 32°41' W 118°40'5 9.8
2017-Oct-13 03:30N 32°40' W 118°46'710.4
2017-Oct-13 02:48N 32°41' W 118°55'310.1
2017-Oct-13 02:30N 32°41' W 118°58'510.4
2017-Oct-13 02:00N 32°41' W 119°05'3 0.2
2017-Oct-12 14:14N 32°42' W 119°08'38 9.4
2017-Oct-12 10:10N 32°40' W 118°22'310.8
2017-Oct-12 09:52N 32°40' W 118°18'411.0
2017-Oct-12 09:29N 32°40' W 118°13'711.0
2017-Oct-12 08:53N 32°40' W 118°06'510.9
2017-Oct-12 08:28N 32°39' W 118°00'611.3
2017-Oct-12 07:56N 32°39' W 117°53'511.0
2017-Oct-12 07:29N 32°39' W 117°47'510.9
2017-Oct-12 07:00N 32°39' W 117°41'510.7
2017-Oct-12 06:30N 32°39' W 117°35'510.3
2017-Oct-12 06:00N 32°39' W 117°29'510.2
2017-Oct-12 05:30N 32°38' W 117°23'710.4
2017-Oct-12 04:49N 32°38' W 117°14'310.4
2017-Oct-12 04:30N 32°41' W 117°14'0 0.6
2017-Oct-12 04:00N 32°42' W 117°14'0 0.0
2017-Oct-12 03:30N 32°42' W 117°14'2 3.4
2017-Oct-12 02:58N 32°43' W 117°14'0 0.0
2017-Oct-12 02:30N 32°43' W 117°14'0 0.0
2017-Oct-12 02:00N 32°43' W 117°14'0 0.0
2017-Oct-12 01:30N 32°43' W 117°14'0 0.0
2017-Oct-12 01:00N 32°43' W 117°14'  
Track history (hours):
 
Tides and Currents Weather Stations Pressure Air Temp Water Temp Dewpoint Dewpoint Depression Visibility Wind Speed Wind Dir Waves Ship Positions

Topgun 80

Owner: TopGun 80 Inc., San Diego, CA. More information available from US FCC via Universal Licensing System and Coast Guard Vessel Documentation Center.

Last reported at 2017-Oct-19 07:00 UTC. Time now 2017-Nov-24 11:08 UTC.
Position N 32°39' W 117°21'.
Warning: this ship's position is 36 days out of date.

Type: Passenger vessel. MMSI: 368437000.

Date/timePositionNaut miles runAvg speedWind from/ knotsBaromVisibWave heightAir tempDewpointWater temp
2017-Oct-19 07:00N 32°39' W 117°21'510.6
2017-Oct-19 06:30N 32°40' W 117°27'610.4
2017-Oct-19 05:58N 32°42' W 117°34'510.3
2017-Oct-19 05:30N 32°43' W 117°39'5 9.9
2017-Oct-19 05:00N 32°44' W 117°45'10 9.8
2017-Oct-19 03:57N 32°47' W 117°57'410.0
2017-Oct-19 03:30N 32°48' W 118°02'710.1
2017-Oct-19 02:49N 32°49' W 118°10'310.4
2017-Oct-19 02:30N 32°50' W 118°14'510.5
2017-Oct-19 02:01N 32°52' W 118°20'5 9.3
2017-Oct-19 01:30N 32°53' W 118°25'0 0.0
2017-Oct-19 01:00N 32°53' W 118°25'0 0.0
2017-Oct-19 00:29N 32°53' W 118°25'0 0.0
2017-Oct-19 00:00N 32°53' W 118°25'4 8.4
2017-Oct-18 23:30N 32°50' W 118°21'1 2.4
2017-Oct-18 23:00N 32°49' W 118°22'2 0.1
2017-Oct-18 09:58N 32°49' W 118°24'0 0.0
2017-Oct-18 09:26N 32°49' W 118°24'0 0.0
2017-Oct-18 08:55N 32°49' W 118°24'0 0.0
2017-Oct-18 08:26N 32°49' W 118°24'25 4.9
2017-Oct-18 03:28N 32°28' W 118°09'4 8.9
2017-Oct-18 03:00N 32°24' W 118°07'8 8.9
2017-Oct-18 02:07N 32°18' W 118°02'1 8.9
2017-Oct-18 02:00N 32°17' W 118°01'4 8.7
2017-Oct-18 01:30N 32°13' W 117°58'5 8.8
2017-Oct-18 00:58N 32°09' W 117°56'4 8.7
2017-Oct-18 00:29N 32°05' W 117°53'4 8.6
2017-Oct-18 00:00N 32°02' W 117°50'37 8.1
2017-Oct-17 19:23N 31°42' W 117°13'8 1.5
2017-Oct-17 14:09N 31°50' W 117°13'1 2.7
2017-Oct-17 13:41N 31°52' W 117°13'0 0.5
2017-Oct-17 13:29N 31°52' W 117°13'0 0.5
2017-Oct-17 13:00N 31°52' W 117°14'47 1.7
2017-Oct-16 08:48N 32°38' W 117°14'3 8.2
2017-Oct-16 08:27N 32°38' W 117°17'4 8.6
2017-Oct-16 07:59N 32°38' W 117°22'4 8.8
2017-Oct-16 07:30N 32°39' W 117°27'4 8.5
2017-Oct-16 07:00N 32°39' W 117°32'4 8.3
2017-Oct-16 06:30N 32°39' W 117°37'4 8.3
2017-Oct-16 06:00N 32°40' W 117°42'4 8.2
2017-Oct-16 05:30N 32°40' W 117°47'4 8.3
2017-Oct-16 05:01N 32°41' W 117°51'4 8.4
2017-Oct-16 04:30N 32°41' W 117°56'24 8.5
2017-Oct-16 01:44N 32°43' W 118°25'2 7.4
2017-Oct-16 01:30N 32°43' W 118°27'3 3.7
2017-Oct-16 00:42N 32°46' W 118°25'1 4.8
2017-Oct-16 00:28N 32°44' W 118°26'4 6.8
2017-Oct-15 23:54N 32°43' W 118°30'7 5.5
2017-Oct-15 22:42N 32°41' W 118°37'4 9.9
2017-Oct-15 22:16N 32°40' W 118°42'310.2
2017-Oct-15 21:59N 32°40' W 118°45'5 8.2
2017-Oct-15 21:25N 32°40' W 118°51'14 1.6
2017-Oct-15 12:27N 32°42' W 119°08'0 0.0
2017-Oct-15 12:00N 32°42' W 119°08'0 0.0
2017-Oct-15 11:30N 32°42' W 119°08'0 0.0
2017-Oct-15 10:52N 32°42' W 119°08'0 0.0
2017-Oct-15 10:27N 32°42' W 119°08'0 0.0
2017-Oct-15 10:00N 32°42' W 119°08'0 0.0
2017-Oct-15 09:29N 32°42' W 119°08'0 0.0
2017-Oct-15 06:40N 32°42' W 119°08'0 0.0
2017-Oct-15 06:30N 32°42' W 119°08'0 0.0
2017-Oct-15 05:24N 32°42' W 119°08'0 0.0
2017-Oct-15 04:59N 32°42' W 119°08'0 0.0
2017-Oct-15 04:30N 32°42' W 119°08'0 0.0
2017-Oct-15 04:00N 32°42' W 119°08'0 0.0
2017-Oct-15 03:30N 32°42' W 119°08'0 0.0
2017-Oct-15 03:00N 32°42' W 119°08'0 0.0
2017-Oct-15 02:30N 32°42' W 119°08'0 0.0
2017-Oct-14 23:14N 32°42' W 119°08'0 0.0
2017-Oct-14 22:22N 32°42' W 119°08'0 0.0
2017-Oct-14 21:56N 32°42' W 119°08'0 0.0
2017-Oct-14 21:24N 32°42' W 119°08'0 0.1
2017-Oct-14 20:56N 32°42' W 119°08'0 0.4
2017-Oct-14 20:28N 32°42' W 119°08'0 0.0
2017-Oct-14 20:00N 32°42' W 119°08'0 0.1
2017-Oct-14 19:29N 32°42' W 119°08'0 0.0
2017-Oct-14 18:58N 32°42' W 119°08'0 0.0
2017-Oct-14 18:30N 32°42' W 119°08'0 0.0
2017-Oct-14 17:59N 32°42' W 119°08'0 0.0
2017-Oct-14 17:30N 32°42' W 119°08'0 0.0
2017-Oct-14 16:58N 32°42' W 119°08'0 0.1
2017-Oct-14 16:30N 32°42' W 119°08'0 0.0
2017-Oct-14 15:19N 32°42' W 119°08'0 0.0
2017-Oct-14 14:59N 32°42' W 119°08'0 0.0
2017-Oct-14 14:30N 32°42' W 119°08'0 0.0
2017-Oct-14 13:59N 32°42' W 119°08'2 1.7
2017-Oct-14 12:48N 32°42' W 119°06'3 9.8
2017-Oct-14 12:30N 32°41' W 119°02'5 9.7
2017-Oct-14 12:00N 32°41' W 118°56'5 9.8
2017-Oct-14 11:30N 32°41' W 118°51'5 9.8
2017-Oct-14 11:00N 32°41' W 118°45'510.1
2017-Oct-14 10:30N 32°41' W 118°39'510.3
2017-Oct-14 10:00N 32°41' W 118°33'510.1
2017-Oct-14 09:30N 32°41' W 118°27'510.2
2017-Oct-14 09:00N 32°40' W 118°21'510.3
2017-Oct-14 08:29N 32°40' W 118°14'610.4
2017-Oct-14 07:55N 32°40' W 118°07'510.5
2017-Oct-14 07:24N 32°39' W 118°01'410.6
2017-Oct-14 07:00N 32°39' W 117°56'510.6
2017-Oct-14 06:30N 32°39' W 117°50'510.4
2017-Oct-14 06:00N 32°39' W 117°43'510.6
2017-Oct-14 05:30N 32°39' W 117°37'510.8
2017-Oct-14 05:00N 32°39' W 117°31'510.4
2017-Oct-14 04:30N 32°39' W 117°25'610.3
2017-Oct-14 03:54N 32°38' W 117°17'3 8.1
2017-Oct-14 03:29N 32°40' W 117°14'2 3.9
2017-Oct-14 03:00N 32°42' W 117°14'0 0.0
2017-Oct-14 02:31N 32°42' W 117°14'2 3.6
2017-Oct-14 02:00N 32°43' W 117°14'0 0.0
2017-Oct-14 01:30N 32°43' W 117°14'0 0.0
2017-Oct-14 01:00N 32°43' W 117°14'0 0.0
2017-Oct-14 00:30N 32°43' W 117°14'0 0.0
2017-Oct-13 12:04N 32°43' W 117°14'0 1.7
2017-Oct-13 12:00N 32°43' W 117°13'4 8.2
2017-Oct-13 11:30N 32°39' W 117°14'5 9.1
2017-Oct-13 11:00N 32°38' W 117°19'510.2
2017-Oct-13 10:30N 32°38' W 117°25'510.0
2017-Oct-13 10:00N 32°39' W 117°31'510.0
2017-Oct-13 09:30N 32°39' W 117°37'5 9.8
2017-Oct-13 09:00N 32°39' W 117°42'5 9.6
2017-Oct-13 08:30N 32°39' W 117°48'5 9.6
2017-Oct-13 08:00N 32°39' W 117°54'5 9.5
2017-Oct-13 07:30N 32°39' W 117°59'5 9.5
2017-Oct-13 07:00N 32°39' W 118°05'5 9.6
2017-Oct-13 06:30N 32°40' W 118°11'5 9.8
2017-Oct-13 06:00N 32°40' W 118°17'510.0
2017-Oct-13 05:30N 32°40' W 118°23'5 9.9
2017-Oct-13 04:59N 32°40' W 118°29'510.1
2017-Oct-13 04:30N 32°41' W 118°34'510.2
2017-Oct-13 04:00N 32°41' W 118°40'5 9.8
2017-Oct-13 03:30N 32°40' W 118°46'710.4
2017-Oct-13 02:48N 32°41' W 118°55'310.1
2017-Oct-13 02:30N 32°41' W 118°58'510.4
2017-Oct-13 02:00N 32°41' W 119°05'3 0.2
2017-Oct-12 14:14N 32°42' W 119°08'38 9.4
2017-Oct-12 10:10N 32°40' W 118°22'310.8
2017-Oct-12 09:52N 32°40' W 118°18'411.0
2017-Oct-12 09:29N 32°40' W 118°13'711.0
2017-Oct-12 08:53N 32°40' W 118°06'510.9
2017-Oct-12 08:28N 32°39' W 118°00'611.3
2017-Oct-12 07:56N 32°39' W 117°53'511.0
2017-Oct-12 07:29N 32°39' W 117°47'510.9
2017-Oct-12 07:00N 32°39' W 117°41'510.7
2017-Oct-12 06:30N 32°39' W 117°35'510.3
2017-Oct-12 06:00N 32°39' W 117°29'510.2
2017-Oct-12 05:30N 32°38' W 117°23'710.4
2017-Oct-12 04:49N 32°38' W 117°14'310.4
2017-Oct-12 04:30N 32°41' W 117°14'0 0.6
2017-Oct-12 04:00N 32°42' W 117°14'0 0.0
2017-Oct-12 03:30N 32°42' W 117°14'2 3.4
2017-Oct-12 02:58N 32°43' W 117°14'0 0.0
2017-Oct-12 02:30N 32°43' W 117°14'0 0.0
2017-Oct-12 02:00N 32°43' W 117°14'0 0.0
2017-Oct-12 01:30N 32°43' W 117°14'0 0.0
2017-Oct-12 01:00N 32°43' W 117°14'  

Dump ship's entire track history